Time;durP1;ratioP1;P1;durP2;ratioP2;P2;SDS_P1;SDS_P2;PMS_P1;PMS_P2;Temp;Humidity;BMP_temperature;BMP_pressure;BME280_temperature;BME280_humidity;BME280_pressure;Samples;Min_cycle;Max_cycle;Signal;HPM_P1;HPM_P2
2022/09/26 00:01:57;;;;;;;6.87;5.60;;;12.90;1.00;;;;;;6284427;28;20716;-54
2022/09/26 00:05:02;;;;;;;5.40;5.20;;;12.90;1.00;;;;;;6284007;28;20232;-54
2022/09/26 00:08:06;;;;;;;5.07;4.87;;;12.90;1.00;;;;;;6281825;28;20754;-54
2022/09/26 00:11:11;;;;;;;4.00;3.80;;;12.80;1.00;;;;;;6282634;28;20399;-54
2022/09/26 00:14:16;;;;;;;4.70;4.40;;;12.80;1.00;;;;;;6283635;28;20316;-54
2022/09/26 00:17:19;;;;;;;5.07;4.77;;;12.80;1.00;;;;;;6280927;28;20240;-54
2022/09/26 00:20:23;;;;;;;6.97;4.70;;;12.80;1.00;;;;;;6288129;28;20241;-53
2022/09/26 00:23:26;;;;;;;6.83;4.37;;;12.80;1.00;;;;;;6272293;28;20245;-55
2022/09/26 00:26:31;;;;;;;4.97;4.07;;;12.70;1.00;;;;;;6284091;28;20225;-53
2022/09/26 00:29:34;;;;;;;4.00;3.70;;;12.70;1.00;;;;;;6282623;28;20241;-53
2022/09/26 00:32:37;;;;;;;4.33;4.03;;;12.70;1.00;;;;;;6281088;28;20740;-55
2022/09/26 00:35:42;;;;;;;4.30;4.00;;;12.60;1.00;;;;;;6297371;28;20229;-55
2022/09/26 00:38:45;;;;;;;6.00;3.90;;;12.60;1.00;;;;;;6306780;28;22804;-53
2022/09/26 00:41:48;;;;;;;4.47;4.17;;;12.60;1.00;;;;;;6302349;28;20242;-54
2022/09/26 00:44:54;;;;;;;4.17;3.87;;;12.60;1.00;;;;;;6259225;28;20256;-59
2022/09/26 00:48:00;;;;;;;3.90;3.60;;;12.60;1.00;;;;;;6259012;28;20736;-55
2022/09/26 00:51:05;;;;;;;4.43;4.10;;;12.60;1.00;;;;;;6272175;28;20241;-54
2022/09/26 00:54:11;;;;;;;4.47;4.07;;;12.60;1.00;;;;;;6276377;28;20232;-54
2022/09/26 00:57:19;;;;;;;5.43;4.37;;;12.60;1.00;;;;;;6278845;28;20629;-54
2022/09/26 01:00:22;;;;;;;4.60;4.30;;;12.50;1.00;;;;;;6282055;28;20245;-54
2022/09/26 01:03:27;;;;;;;5.13;4.70;;;12.60;1.00;;;;;;6278866;28;20627;-54
2022/09/26 01:06:32;;;;;;;4.23;4.03;;;12.60;1.00;;;;;;6299814;28;20224;-54
2022/09/26 01:09:36;;;;;;;3.80;3.60;;;12.50;1.00;;;;;;6307745;28;20240;-55
2022/09/26 01:12:39;;;;;;;4.83;4.43;;;12.50;1.00;;;;;;6283277;28;20249;-54
2022/09/26 01:15:42;;;;;;;4.37;4.17;;;12.50;1.00;;;;;;6258351;28;20745;-54
2022/09/26 01:18:46;;;;;;;4.57;4.27;;;12.40;1.00;;;;;;6257170;28;20247;-55
2022/09/26 01:22:09;;;;;;;4.40;4.07;;;12.40;1.00;;;;;;6272109;28;20229;-54
2022/09/26 01:25:21;;;;;;;7.27;4.20;;;12.40;1.00;;;;;;6282379;28;20248;-53
2022/09/26 01:28:44;;;;;;;5.67;4.97;;;12.40;1.00;;;;;;6282563;28;20240;-53
2022/09/26 01:35:39;;;;;;;4.80;4.47;;;12.40;1.00;;;;;;6288633;28;20412;-54
2022/09/26 01:38:52;;;;;;;5.10;4.70;;;12.40;1.00;;;;;;6256869;28;20245;-55
2022/09/26 01:42:01;;;;;;;5.23;4.73;;;12.40;1.00;;;;;;6261927;28;20242;-55
2022/09/26 01:45:11;;;;;;;4.37;4.07;;;12.40;1.00;;;;;;6287676;28;20705;-54
2022/09/26 01:48:21;;;;;;;5.30;4.90;;;12.40;1.00;;;;;;6280158;28;20230;-54
2022/09/26 01:51:28;;;;;;;5.43;5.00;;;12.40;1.00;;;;;;6282225;28;20229;-54
2022/09/26 01:54:37;;;;;;;4.77;4.33;;;12.40;1.00;;;;;;6280347;28;20229;-55
2022/09/26 01:57:44;;;;;;;4.73;4.23;;;12.40;1.00;;;;;;6285809;28;20240;-54
2022/09/26 02:00:49;;;;;;;5.13;4.33;;;12.40;1.00;;;;;;6287750;28;20236;-54
2022/09/26 02:03:56;;;;;;;4.97;4.23;;;12.40;1.00;;;;;;6297110;28;20229;-53
2022/09/26 02:07:04;;;;;;;4.53;4.13;;;12.30;1.00;;;;;;6303459;28;20225;-54
2022/09/26 02:10:12;;;;;;;3.77;3.57;;;12.40;1.00;;;;;;6262614;28;20233;-54
2022/09/26 02:13:19;;;;;;;4.33;4.03;;;12.30;1.00;;;;;;6262822;28;20234;-53
2022/09/26 02:16:28;;;;;;;4.27;4.00;;;12.40;1.00;;;;;;6263472;28;20241;-54
2022/09/26 02:19:36;;;;;;;4.37;3.93;;;12.30;1.00;;;;;;6273362;28;20232;-55
2022/09/26 02:22:39;;;;;;;3.93;3.70;;;12.40;1.00;;;;;;6286044;28;20257;-54
2022/09/26 02:25:43;;;;;;;8.27;4.30;;;12.40;1.00;;;;;;6285827;28;20312;-54
2022/09/26 02:28:47;;;;;;;4.33;4.03;;;12.40;1.00;;;;;;6284667;28;20304;-54
2022/09/26 02:31:56;;;;;;;4.13;3.80;;;12.40;1.00;;;;;;6286332;28;20237;-54
2022/09/26 02:35:52;;;;;;;4.00;3.90;;;12.40;1.00;;;;;;6287361;28;20230;-54
2022/09/26 02:38:31;;;;;;;4.70;4.30;;;12.30;1.00;;;;;;6285274;28;20230;-54
2022/09/26 02:41:42;;;;;;;4.97;4.57;;;12.40;1.00;;;;;;6284553;28;20248;-54
2022/09/26 02:45:01;;;;;;;4.67;4.37;;;12.40;1.00;;;;;;6277613;28;20237;-55
2022/09/26 02:48:21;;;;;;;8.87;4.67;;;12.40;1.00;;;;;;6285467;28;20240;-54
2022/09/26 02:51:53;;;;;;;4.33;4.13;;;12.30;1.00;;;;;;6284496;28;20242;-54
2022/09/26 02:55:05;;;;;;;4.20;3.90;;;12.30;1.00;;;;;;6263887;28;20226;-55
2022/09/26 02:58:17;;;;;;;4.80;4.50;;;12.30;1.00;;;;;;6285558;28;20574;-55
2022/09/26 03:01:30;;;;;;;4.27;4.07;;;12.30;1.00;;;;;;6283521;28;20244;-54
2022/09/26 03:04:44;;;;;;;4.40;4.10;;;12.30;1.00;;;;;;6289253;28;20233;-55
2022/09/26 03:07:53;;;;;;;6.67;4.50;;;12.30;1.00;;;;;;6285358;28;20234;-54
2022/09/26 03:10:59;;;;;;;6.17;4.53;;;12.30;1.00;;;;;;6285442;28;20742;-54
2022/09/26 03:14:03;;;;;;;4.43;4.20;;;12.20;1.00;;;;;;6282122;28;20249;-53
2022/09/26 03:17:08;;;;;;;4.97;4.50;;;12.20;1.00;;;;;;6277873;28;20253;-54
2022/09/26 03:20:14;;;;;;;5.23;4.90;;;12.20;1.00;;;;;;6288623;28;20241;-54
2022/09/26 03:23:22;;;;;;;4.50;4.30;;;12.20;1.00;;;;;;6285378;28;20733;-54
2022/09/26 03:26:27;;;;;;;4.90;4.50;;;12.10;1.00;;;;;;6279629;28;20241;-54
2022/09/26 03:29:30;;;;;;;4.53;4.27;;;12.20;1.00;;;;;;6260440;28;20765;-54
2022/09/26 03:32:33;;;;;;;6.83;4.80;;;12.10;1.00;;;;;;6264091;28;20252;-54
2022/09/26 03:35:36;;;;;;;4.93;4.63;;;12.10;1.00;;;;;;6282631;28;20272;-55
2022/09/26 03:38:40;;;;;;;4.50;4.13;;;12.10;1.00;;;;;;6287437;28;20249;-54
2022/09/26 03:41:43;;;;;;;4.87;4.30;;;12.10;1.00;;;;;;6287505;28;20252;-55
2022/09/26 03:44:46;;;;;;;4.63;4.33;;;12.10;1.00;;;;;;6300765;28;20240;-55
2022/09/26 03:47:55;;;;;;;4.90;4.60;;;12.10;1.00;;;;;;6287158;28;20233;-54
2022/09/26 03:51:02;;;;;;;5.37;4.80;;;12.10;1.00;;;;;;6284985;28;20619;-52
2022/09/26 03:54:06;;;;;;;4.40;4.23;;;12.10;1.00;;;;;;6279307;28;20233;-53
2022/09/26 03:57:11;;;;;;;4.60;4.50;;;12.10;1.00;;;;;;6283388;28;20624;-54
2022/09/26 04:00:14;;;;;;;5.07;4.67;;;12.10;1.00;;;;;;6283088;28;20225;-52
2022/09/26 04:03:17;;;;;;;5.10;4.70;;;12.10;1.00;;;;;;6269206;28;20236;-55
2022/09/26 04:06:20;;;;;;;5.10;4.67;;;12.10;1.00;;;;;;6285520;28;20249;-54
2022/09/26 04:09:26;;;;;;;5.23;4.73;;;12.10;1.00;;;;;;6282334;28;20233;-54
2022/09/26 04:12:28;;;;;;;4.83;4.50;;;12.10;1.00;;;;;;6281614;28;20432;-53
2022/09/26 04:15:31;;;;;;;4.90;4.53;;;12.10;1.00;;;;;;6277341;28;20229;-54
2022/09/26 04:18:35;;;;;;;5.20;4.67;;;12.10;1.00;;;;;;6281004;28;20916;-59
2022/09/26 04:21:38;;;;;;;4.87;4.33;;;12.10;1.00;;;;;;6286877;28;20786;-58
2022/09/26 04:24:43;;;;;;;4.97;4.57;;;12.00;1.00;;;;;;6284045;28;20253;-55
2022/09/26 04:27:46;;;;;;;5.10;4.60;;;12.00;1.00;;;;;;6284605;28;20603;-52
2022/09/26 04:30:49;;;;;;;5.10;4.70;;;11.90;1.00;;;;;;6291645;28;20237;-54
2022/09/26 04:33:53;;;;;;;5.00;4.70;;;11.90;1.00;;;;;;6285550;28;20236;-54
2022/09/26 04:36:58;;;;;;;5.33;4.93;;;11.90;1.00;;;;;;6288863;28;20324;-54
2022/09/26 04:40:02;;;;;;;5.70;5.33;;;11.80;1.00;;;;;;6282649;28;20229;-53
2022/09/26 04:43:05;;;;;;;5.57;4.73;;;11.80;1.00;;;;;;6288720;28;20248;-53
2022/09/26 04:46:09;;;;;;;8.73;4.87;;;11.70;1.00;;;;;;6279073;28;20230;-57
2022/09/26 04:49:12;;;;;;;4.60;4.30;;;11.70;1.00;;;;;;6292535;28;20760;-53
2022/09/26 04:52:15;;;;;;;5.03;4.63;;;11.70;1.00;;;;;;6282850;28;20241;-53
2022/09/26 04:55:20;;;;;;;5.93;5.50;;;11.70;1.00;;;;;;6278528;28;20245;-57
2022/09/26 04:58:22;;;;;;;5.20;4.67;;;11.70;1.00;;;;;;6281129;28;20229;-54
2022/09/26 05:01:26;;;;;;;5.60;5.30;;;11.60;1.00;;;;;;6274600;28;20237;-55
2022/09/26 05:04:32;;;;;;;5.70;5.13;;;11.60;1.00;;;;;;6298800;28;20235;-54
2022/09/26 05:07:39;;;;;;;6.77;5.47;;;11.50;1.00;;;;;;6297467;28;20229;-54
2022/09/26 05:10:45;;;;;;;5.93;5.40;;;11.50;1.00;;;;;;6285398;28;20401;-55
2022/09/26 05:13:50;;;;;;;5.97;5.57;;;11.50;1.00;;;;;;6286485;28;20616;-53
2022/09/26 05:16:55;;;;;;;6.40;5.77;;;11.50;1.00;;;;;;6281297;28;20768;-54
2022/09/26 05:19:59;;;;;;;5.90;5.50;;;11.50;1.00;;;;;;6292548;28;20241;-54
2022/09/26 05:23:03;;;;;;;4.60;4.20;;;11.50;1.00;;;;;;6281947;28;20248;-52
2022/09/26 05:26:20;;;;;;;8.83;5.43;;;11.40;1.00;;;;;;6283635;28;20489;-57
2022/09/26 05:29:23;;;;;;;6.27;5.77;;;11.40;1.00;;;;;;6288625;28;20221;-54
2022/09/26 05:32:26;;;;;;;6.23;5.80;;;11.40;1.00;;;;;;6275268;28;20588;-53
2022/09/26 05:35:33;;;;;;;6.67;6.03;;;11.40;1.00;;;;;;6279101;28;20236;-54
2022/09/26 05:38:36;;;;;;;6.60;6.03;;;11.40;1.00;;;;;;6280499;28;20247;-56
2022/09/26 05:41:39;;;;;;;6.23;5.83;;;11.50;1.00;;;;;;6285963;28;20613;-54
2022/09/26 05:44:42;;;;;;;5.63;5.30;;;11.40;1.00;;;;;;6283822;28;20240;-54
2022/09/26 05:47:47;;;;;;;6.13;5.67;;;11.40;1.00;;;;;;6295544;28;20736;-54
2022/09/26 05:50:50;;;;;;;6.07;5.57;;;11.50;1.00;;;;;;6288500;28;20478;-53
2022/09/26 05:53:53;;;;;;;6.93;6.27;;;11.40;1.00;;;;;;6280243;28;20391;-54
2022/09/26 05:56:57;;;;;;;6.23;5.80;;;11.50;1.00;;;;;;6286065;28;20420;-53
2022/09/26 06:00:01;;;;;;;6.30;5.80;;;11.50;1.00;;;;;;6292523;28;20379;-54
2022/09/26 06:03:04;;;;;;;6.33;5.83;;;11.60;1.00;;;;;;6282057;28;20233;-54
2022/09/26 06:06:09;;;;;;;6.10;5.60;;;11.60;1.00;;;;;;6284246;28;20233;-54
2022/09/26 06:09:12;;;;;;;6.67;6.17;;;11.60;1.00;;;;;;6281282;28;20243;-54
2022/09/26 06:12:19;;;;;;;6.10;5.50;;;11.70;1.00;;;;;;6283154;28;20234;-54
2022/09/26 06:15:23;;;;;;;5.83;5.40;;;11.70;1.00;;;;;;6279880;28;20396;-54
2022/09/26 06:18:26;;;;;;;5.80;5.50;;;11.70;1.00;;;;;;6279963;28;20225;-54
2022/09/26 06:21:29;;;;;;;6.50;5.90;;;11.80;1.00;;;;;;6290553;28;20240;-55
2022/09/26 06:24:32;;;;;;;6.27;5.67;;;11.80;1.00;;;;;;6279024;28;20311;-54
2022/09/26 06:27:37;;;;;;;6.27;5.80;;;11.90;1.00;;;;;;6282428;28;20237;-53
2022/09/26 06:30:40;;;;;;;6.47;5.87;;;12.00;1.00;;;;;;6282555;28;20237;-53
2022/09/26 06:33:43;;;;;;;7.13;6.50;;;12.10;1.00;;;;;;6290991;28;20285;-53
2022/09/26 06:36:46;;;;;;;7.10;6.37;;;12.10;1.00;;;;;;6284902;28;20248;-53
2022/09/26 06:39:49;;;;;;;6.20;5.83;;;12.40;1.00;;;;;;6286886;28;20514;-55
2022/09/26 06:42:54;;;;;;;6.47;6.00;;;12.80;1.00;;;;;;6285733;28;20233;-53
2022/09/26 06:45:57;;;;;;;5.80;5.50;;;12.80;1.00;;;;;;6288054;28;20229;-54
2022/09/26 06:49:00;;;;;;;6.40;6.00;;;12.80;1.00;;;;;;6286944;28;20247;-54
2022/09/26 06:52:03;;;;;;;7.17;6.10;;;12.90;1.00;;;;;;6282016;28;20245;-54
2022/09/26 06:55:08;;;;;;;6.40;6.00;;;12.90;1.00;;;;;;6291172;28;20582;-53
2022/09/26 06:58:12;;;;;;;7.10;5.40;;;12.90;1.00;;;;;;6289510;28;20776;-55
2022/09/26 07:01:15;;;;;;;7.80;5.23;;;13.00;1.00;;;;;;6285660;28;20233;-52
2022/09/26 07:04:18;;;;;;;6.43;5.93;;;13.10;1.00;;;;;;6283897;28;20796;-53
2022/09/26 07:07:21;;;;;;;6.33;5.73;;;13.20;1.00;;;;;;6278568;28;20244;-53
2022/09/26 07:10:24;;;;;;;5.87;5.47;;;13.50;1.00;;;;;;6279494;28;20234;-55
2022/09/26 07:13:29;;;;;;;6.03;5.47;;;13.90;1.00;;;;;;6293949;28;20225;-54
2022/09/26 07:16:32;;;;;;;6.40;5.83;;;13.80;1.00;;;;;;6290369;28;20229;-54
2022/09/26 07:19:35;;;;;;;6.50;6.10;;;13.70;1.00;;;;;;6293918;28;20280;-54
2022/09/26 07:22:37;;;;;;;7.30;6.33;;;13.60;1.00;;;;;;6288401;28;20245;-58
2022/09/26 07:25:44;;;;;;;7.50;6.90;;;13.70;1.00;;;;;;6281061;28;20265;-54
2022/09/26 07:28:48;;;;;;;7.53;6.90;;;13.60;1.00;;;;;;6278102;28;20234;-53
2022/09/26 07:31:56;;;;;;;10.30;8.00;;;13.60;1.00;;;;;;6291427;28;20284;-52
2022/09/26 07:35:02;;;;;;;7.50;7.00;;;13.70;1.00;;;;;;6285227;28;20221;-53
2022/09/26 07:38:05;;;;;;;7.10;6.53;;;13.60;1.00;;;;;;6292458;28;20237;-54
2022/09/26 07:41:10;;;;;;;9.97;7.20;;;13.60;1.00;;;;;;6283192;28;20237;-55
2022/09/26 07:44:14;;;;;;;7.53;6.83;;;13.60;1.00;;;;;;6286951;28;20301;-54
2022/09/26 07:50:59;;;;;;;7.70;7.20;;;13.60;1.00;;;;;;6286462;28;20232;-55
2022/09/26 07:54:02;;;;;;;6.67;6.10;;;13.60;1.00;;;;;;6283140;28;20236;-54
2022/09/26 07:57:04;;;;;;;5.77;5.37;;;13.70;1.00;;;;;;6286970;28;20236;-54
2022/09/26 08:00:12;;;;;;;5.80;5.13;;;13.80;1.00;;;;;;6286245;28;20511;-55
2022/09/26 08:03:15;;;;;;;6.47;5.40;;;14.00;1.00;;;;;;6285149;28;20256;-52
2022/09/26 08:06:19;;;;;;;6.50;4.90;;;14.10;1.00;;;;;;6268395;28;20234;-54
2022/09/26 08:09:22;;;;;;;4.33;3.97;;;14.20;1.00;;;;;;6283014;28;20252;-55
2022/09/26 08:12:25;;;;;;;5.13;4.63;;;14.30;1.00;;;;;;6276359;28;20229;-54
2022/09/26 08:15:30;;;;;;;4.50;4.10;;;14.30;1.00;;;;;;6283726;28;20237;-54
2022/09/26 08:18:33;;;;;;;4.13;3.77;;;14.40;1.00;;;;;;6284703;28;20417;-55
2022/09/26 08:21:36;;;;;;;4.50;4.20;;;14.50;1.00;;;;;;6285738;28;20252;-54
2022/09/26 08:24:39;;;;;;;7.23;4.03;;;14.60;1.00;;;;;;6291689;28;20488;-53
2022/09/26 08:27:43;;;;;;;4.90;4.60;;;14.80;1.00;;;;;;6281187;28;20428;-54
2022/09/26 08:30:47;;;;;;;4.00;3.70;;;14.80;1.00;;;;;;6289287;28;20241;-53
2022/09/26 08:33:50;;;;;;;4.10;3.70;;;14.70;1.00;;;;;;6280730;28;20502;-54
2022/09/26 08:36:53;;;;;;;4.23;3.87;;;14.70;1.00;;;;;;6283192;28;20605;-56
2022/09/26 08:39:56;;;;;;;4.30;3.90;;;14.70;1.00;;;;;;6281256;28;20652;-55
2022/09/26 08:43:06;;;;;;;4.93;3.67;;;14.80;1.00;;;;;;6282737;28;20221;-58
2022/09/26 08:46:41;;;;;;;4.60;4.30;;;14.90;1.00;;;;;;6282983;28;20222;-53
2022/09/26 08:50:00;;;;;;;8.00;3.60;;;15.00;1.00;;;;;;6292128;28;20320;-55
2022/09/26 08:53:08;;;;;;;3.83;3.53;;;15.00;1.00;;;;;;6284370;28;20249;-54
2022/09/26 08:56:19;;;;;;;5.37;4.87;;;15.00;1.00;;;;;;6283534;28;20234;-54
2022/09/26 08:59:28;;;;;;;3.43;3.23;;;14.90;1.00;;;;;;6281710;28;20233;-55
2022/09/26 09:02:38;;;;;;;6.13;3.77;;;15.10;1.00;;;;;;6281946;28;20232;-53
2022/09/26 09:05:44;;;;;;;3.73;3.50;;;15.10;1.00;;;;;;6280254;28;20339;-53
2022/09/26 09:08:50;;;;;;;3.43;3.23;;;15.20;1.00;;;;;;6276473;28;20241;-55
2022/09/26 09:12:08;;;;;;;3.43;3.20;;;15.30;1.00;;;;;;6283867;28;20244;-54
2022/09/26 09:15:26;;;;;;;3.57;3.30;;;15.30;1.00;;;;;;6284298;28;20252;-53
2022/09/26 09:18:40;;;;;;;5.50;3.73;;;15.20;1.00;;;;;;6275059;28;20238;-52
2022/09/26 09:21:54;;;;;;;4.03;3.40;;;15.30;1.00;;;;;;6292236;28;20263;-52
2022/09/26 09:25:00;;;;;;;3.30;3.20;;;15.40;1.00;;;;;;6276933;28;20252;-53
2022/09/26 09:28:18;;;;;;;3.67;3.13;;;15.60;1.00;;;;;;6286635;28;20233;-53
2022/09/26 09:31:23;;;;;;;2.87;2.77;;;15.80;1.00;;;;;;6279010;28;20252;-53
2022/09/26 09:34:32;;;;;;;4.10;2.57;;;15.90;1.00;;;;;;6281973;28;20562;-53
2022/09/26 09:37:45;;;;;;;2.60;2.50;;;15.90;1.00;;;;;;6280384;28;20229;-54
2022/09/26 09:40:54;;;;;;;3.03;2.67;;;15.80;1.00;;;;;;6288113;28;20623;-54
2022/09/26 09:44:01;;;;;;;2.13;1.90;;;15.80;1.00;;;;;;6283491;28;20455;-55
2022/09/26 09:47:13;;;;;;;2.30;2.20;;;15.50;1.00;;;;;;6290428;28;20251;-53
2022/09/26 09:50:26;;;;;;;3.80;2.40;;;15.30;1.00;;;;;;6265936;28;20234;-54
2022/09/26 09:53:45;;;;;;;2.30;2.20;;;15.10;1.00;;;;;;6283187;28;20237;-55
2022/09/26 09:57:06;;;;;;;4.80;2.33;;;15.10;1.00;;;;;;6290799;28;20233;-55
2022/09/26 10:00:14;;;;;;;2.37;2.27;;;15.30;1.00;;;;;;6282292;28;20274;-54
2022/09/26 10:03:25;;;;;;;2.50;2.30;;;15.50;1.00;;;;;;6282702;28;20383;-52
2022/09/26 10:06:31;;;;;;;3.93;2.47;;;15.70;1.00;;;;;;6292677;28;20233;-55
2022/09/26 10:09:50;;;;;;;2.00;1.90;;;15.90;1.00;;;;;;6288964;28;20272;-54
2022/09/26 10:12:54;;;;;;;2.70;2.50;;;16.20;1.00;;;;;;6284579;28;20239;-53
2022/09/26 10:16:01;;;;;;;2.60;2.40;;;16.30;1.00;;;;;;6288864;28;20610;-53
2022/09/26 10:19:06;;;;;;;3.10;2.33;;;16.60;1.00;;;;;;6276750;28;20229;-54
2022/09/26 10:22:17;;;;;;;2.00;1.90;;;16.80;1.00;;;;;;6286422;28;20716;-53
2022/09/26 10:25:24;;;;;;;2.70;2.60;;;17.10;1.00;;;;;;6276498;28;20252;-54
2022/09/26 10:28:34;;;;;;;2.07;2.07;;;17.20;1.00;;;;;;6280434;28;20233;-53
2022/09/26 10:31:39;;;;;;;2.50;2.30;;;17.30;1.00;;;;;;6285683;28;20635;-53
2022/09/26 10:35:04;;;;;;;2.20;1.87;;;17.30;1.00;;;;;;6285209;28;20257;-52
2022/09/26 10:38:19;;;;;;;2.17;2.17;;;17.30;1.00;;;;;;6274881;28;20222;-53
2022/09/26 10:41:24;;;;;;;2.33;2.30;;;17.20;1.00;;;;;;6274591;28;20732;-53
2022/09/26 10:44:28;;;;;;;3.47;2.30;;;17.20;1.00;;;;;;6279078;28;20244;-53
2022/09/26 10:47:33;;;;;;;2.63;2.30;;;17.20;1.00;;;;;;6289021;28;20236;-54
2022/09/26 10:50:36;;;;;;;2.00;2.00;;;17.20;1.00;;;;;;6294790;28;20686;-55
2022/09/26 10:53:41;;;;;;;2.23;2.13;;;17.20;1.00;;;;;;6278040;28;20249;-53
2022/09/26 10:56:48;;;;;;;4.80;2.30;;;17.10;1.00;;;;;;6297233;28;20314;-54
2022/09/26 10:59:53;;;;;;;2.40;2.20;;;17.00;1.00;;;;;;6281705;28;20419;-55
2022/09/26 11:02:55;;;;;;;2.13;2.03;;;17.00;1.00;;;;;;6278766;28;20252;-54
2022/09/26 11:05:59;;;;;;;2.40;2.30;;;16.90;1.00;;;;;;6282051;28;20504;-53
2022/09/26 11:09:04;;;;;;;3.50;2.20;;;16.70;1.00;;;;;;6278323;28;20233;-54
2022/09/26 11:12:24;;;;;;;2.40;2.20;;;16.70;1.00;;;;;;6285594;28;20530;-53
2022/09/26 11:15:28;;;;;;;3.90;2.10;;;16.70;1.00;;;;;;6285963;28;20737;-53
2022/09/26 11:18:42;;;;;;;2.20;2.10;;;16.60;1.00;;;;;;6289872;28;20233;-54
2022/09/26 11:21:51;;;;;;;3.30;2.50;;;16.60;1.00;;;;;;6292045;28;20237;-53
2022/09/26 11:25:05;;;;;;;2.67;2.57;;;16.50;1.00;;;;;;6295249;28;20583;-55
2022/09/26 11:28:15;;;;;;;2.57;2.37;;;16.60;1.00;;;;;;6286858;28;20456;-53
2022/09/26 11:31:24;;;;;;;2.00;2.00;;;16.60;1.00;;;;;;6299517;28;20241;-54
2022/09/26 11:34:30;;;;;;;3.07;2.40;;;16.60;1.00;;;;;;6282716;28;20366;-55
2022/09/26 11:38:02;;;;;;;2.93;2.50;;;16.60;1.00;;;;;;6276346;28;20240;-53
2022/09/26 11:41:37;;;;;;;3.73;2.60;;;16.70;1.00;;;;;;6282871;28;20229;-55
2022/09/26 11:44:53;;;;;;;2.27;2.17;;;16.60;1.00;;;;;;6272461;28;20554;-53
2022/09/26 11:48:15;;;;;;;2.00;1.90;;;16.90;1.00;;;;;;6280516;28;20610;-54
2022/09/26 11:51:30;;;;;;;3.10;1.77;;;17.00;1.00;;;;;;6291598;28;20648;-53
2022/09/26 11:54:57;;;;;;;2.23;2.00;;;17.40;1.00;;;;;;6276206;28;20233;-53
2022/09/26 11:58:13;;;;;;;3.27;2.20;;;17.70;1.00;;;;;;6279627;28;20240;-54
2022/09/26 12:01:26;;;;;;;5.13;2.00;;;17.70;1.00;;;;;;6286732;28;20238;-54
2022/09/26 12:04:51;;;;;;;3.00;2.73;;;17.60;1.00;;;;;;6286761;28;20241;-52
2022/09/26 12:08:05;;;;;;;2.20;2.10;;;17.40;1.00;;;;;;6276562;28;20348;-54
2022/09/26 12:11:22;;;;;;;5.00;2.53;;;17.30;1.00;;;;;;6286786;28;20261;-54
2022/09/26 12:14:40;;;;;;;3.17;2.70;;;17.20;1.00;;;;;;6251584;28;20230;-55
2022/09/26 12:17:58;;;;;;;3.53;2.40;;;17.10;1.00;;;;;;6280730;28;20242;-53
2022/09/26 12:21:18;;;;;;;3.03;2.40;;;17.00;1.00;;;;;;6289773;28;20229;-54
2022/09/26 12:24:27;;;;;;;2.97;2.60;;;16.90;1.00;;;;;;6290988;28;20338;-54
2022/09/26 12:27:37;;;;;;;2.90;2.70;;;17.00;1.00;;;;;;6284922;28;20267;-54
2022/09/26 12:30:50;;;;;;;2.37;2.20;;;17.30;1.00;;;;;;6280162;28;20233;-53
2022/09/26 12:34:23;;;;;;;2.70;2.40;;;17.40;1.00;;;;;;6278302;28;20236;-54
2022/09/26 12:37:42;;;;;;;2.43;2.23;;;17.50;1.00;;;;;;6277546;28;20241;-55
2022/09/26 12:40:56;;;;;;;2.20;2.10;;;17.60;1.00;;;;;;6273216;28;20229;-53
2022/09/26 12:44:21;;;;;;;3.97;2.30;;;17.50;1.00;;;;;;6286866;28;20654;-54
2022/09/26 12:47:43;;;;;;;6.27;2.30;;;17.50;1.00;;;;;;6293725;28;20259;-54
2022/09/26 12:50:56;;;;;;;2.33;2.20;;;17.20;1.00;;;;;;6273384;28;20643;-54
2022/09/26 12:54:18;;;;;;;2.57;2.40;;;17.20;1.00;;;;;;6284017;28;20233;-56
2022/09/26 12:57:29;;;;;;;7.60;2.33;;;17.20;1.00;;;;;;6285103;28;20324;-54
2022/09/26 13:00:40;;;;;;;2.63;2.50;;;17.20;1.00;;;;;;6291325;28;20330;-54
2022/09/26 13:04:16;;;;;;;6.33;2.40;;;17.20;1.00;;;;;;6286992;28;20618;-54
2022/09/26 13:07:32;;;;;;;3.30;2.07;;;17.20;1.00;;;;;;6278238;28;20240;-54
2022/09/26 13:10:51;;;;;;;2.87;2.60;;;17.30;1.00;;;;;;6275789;28;20248;-54
2022/09/26 13:14:17;;;;;;;3.07;2.87;;;17.10;1.00;;;;;;6281252;28;20267;-54
2022/09/26 13:17:24;;;;;;;3.17;2.87;;;17.10;1.00;;;;;;6282542;28;20229;-54
2022/09/26 13:20:35;;;;;;;2.53;2.33;;;17.10;1.00;;;;;;6296328;28;20398;-53
2022/09/26 13:23:43;;;;;;;3.17;2.43;;;17.00;1.00;;;;;;6281164;28;20237;-58
2022/09/26 13:26:51;;;;;;;2.50;2.30;;;16.90;1.00;;;;;;6280555;28;20233;-53
2022/09/26 13:30:02;;;;;;;2.77;2.67;;;16.90;1.00;;;;;;6283037;28;20245;-54
2022/09/26 13:33:13;;;;;;;3.63;2.60;;;16.90;1.00;;;;;;6282039;28;20641;-54
2022/09/26 13:36:21;;;;;;;2.87;2.40;;;16.80;1.00;;;;;;6284645;28;20232;-54
2022/09/26 13:39:31;;;;;;;6.27;2.37;;;16.80;1.00;;;;;;6266254;28;20261;-54
2022/09/26 13:42:44;;;;;;;4.73;2.20;;;16.80;1.00;;;;;;6293926;28;20731;-54
2022/09/26 13:45:57;;;;;;;2.40;2.30;;;16.90;1.00;;;;;;6293270;28;20486;-54
2022/09/26 13:49:16;;;;;;;2.60;2.50;;;17.00;1.00;;;;;;6292548;28;20221;-54
2022/09/26 13:52:51;;;;;;;4.73;2.10;;;17.10;1.00;;;;;;6283138;28;20225;-53
2022/09/26 13:56:42;;;;;;;2.80;2.33;;;17.20;1.00;;;;;;6280991;28;20236;-54
2022/09/26 13:59:53;;;;;;;2.80;2.10;;;17.30;1.00;;;;;;6248704;28;20240;-55
2022/09/26 14:03:33;;;;;;;2.60;2.40;;;17.20;1.00;;;;;;6294084;28;21069;-53
2022/09/26 14:06:35;;;;;;;2.63;2.50;;;17.10;1.00;;;;;;6288597;28;20237;-55
2022/09/26 14:09:51;;;;;;;2.70;2.50;;;17.00;1.00;;;;;;6290645;28;20608;-53
2022/09/26 14:13:17;;;;;;;2.30;2.23;;;17.00;1.00;;;;;;6281928;28;20226;-53
2022/09/26 14:16:34;;;;;;;5.57;2.70;;;17.10;1.00;;;;;;6284710;28;20260;-54
2022/09/26 14:19:43;;;;;;;2.50;2.30;;;17.20;1.00;;;;;;6290556;28;20233;-53
2022/09/26 14:22:50;;;;;;;6.00;2.13;;;17.20;1.00;;;;;;6287924;28;20232;-55
2022/09/26 14:26:07;;;;;;;2.77;2.30;;;17.40;1.00;;;;;;6282490;28;20307;-54
2022/09/26 14:29:34;;;;;;;4.87;2.37;;;17.30;1.00;;;;;;6282359;28;20628;-55
2022/09/26 14:32:39;;;;;;;2.57;2.47;;;17.20;1.00;;;;;;6286172;28;20243;-53
2022/09/26 14:35:42;;;;;;;6.10;2.63;;;17.00;1.00;;;;;;6287045;28;20238;-53
2022/09/26 14:38:47;;;;;;;4.57;2.43;;;16.90;1.00;;;;;;6288680;28;20236;-55
2022/09/26 14:41:52;;;;;;;3.67;2.43;;;16.80;1.00;;;;;;6289665;28;20299;-54
2022/09/26 14:44:57;;;;;;;2.80;2.60;;;16.80;1.00;;;;;;6278284;28;20649;-54
2022/09/26 14:48:07;;;;;;;4.73;2.70;;;16.70;1.00;;;;;;6285272;28;20252;-54
2022/09/26 14:51:27;;;;;;;2.30;2.20;;;16.70;1.00;;;;;;6291064;28;20249;-54
2022/09/26 14:54:37;;;;;;;5.23;2.53;;;16.60;1.00;;;;;;6278475;28;20698;-54
2022/09/26 14:57:41;;;;;;;4.10;2.63;;;16.60;1.00;;;;;;6287490;28;20301;-54
2022/09/26 15:00:48;;;;;;;2.60;2.50;;;16.40;1.00;;;;;;6276703;28;20239;-54
2022/09/26 15:03:55;;;;;;;2.40;2.40;;;16.40;1.00;;;;;;6286969;28;20239;-54
2022/09/26 15:07:02;;;;;;;3.83;2.77;;;16.40;1.00;;;;;;6280721;28;20630;-54
2022/09/26 15:10:17;;;;;;;2.70;2.47;;;16.40;1.00;;;;;;6280782;28;20616;-55
2022/09/26 15:13:31;;;;;;;5.17;2.93;;;16.40;1.00;;;;;;6286516;28;20246;-55
2022/09/26 15:16:41;;;;;;;2.93;2.77;;;16.30;1.00;;;;;;6283289;28;20698;-54
2022/09/26 15:19:49;;;;;;;2.73;2.53;;;16.40;1.00;;;;;;6289330;28;20237;-55
2022/09/26 15:22:56;;;;;;;3.00;2.80;;;16.40;1.00;;;;;;6284745;28;20422;-53
2022/09/26 15:26:01;;;;;;;3.37;3.03;;;16.40;1.00;;;;;;6281221;28;20779;-55
2022/09/26 15:29:08;;;;;;;4.40;2.80;;;16.30;1.00;;;;;;6281670;28;20284;-55
2022/09/26 15:32:20;;;;;;;3.30;3.20;;;16.40;1.00;;;;;;6289218;28;20236;-55
2022/09/26 15:35:23;;;;;;;3.00;2.80;;;16.20;1.00;;;;;;6281703;28;20233;-55
2022/09/26 15:38:26;;;;;;;3.47;3.27;;;16.20;1.00;;;;;;6278867;28;20232;-55
2022/09/26 15:45:25;;;;;;;3.00;2.90;;;16.10;1.00;;;;;;6183297;28;20403;-53
2022/09/26 15:48:31;;;;;;;3.87;3.17;;;16.20;1.00;;;;;;6176550;28;20394;-55
2022/09/26 15:51:38;;;;;;;3.33;3.00;;;16.20;1.00;;;;;;6289933;28;20375;-55
2022/09/26 15:54:41;;;;;;;4.77;2.97;;;16.20;1.00;;;;;;6282481;28;20233;-54
2022/09/26 15:57:47;;;;;;;3.47;2.77;;;16.10;1.00;;;;;;6280605;28;20251;-55
2022/09/26 16:00:52;;;;;;;3.03;2.90;;;16.00;1.00;;;;;;6285735;28;20268;-55
2022/09/26 16:03:57;;;;;;;2.77;2.57;;;16.00;1.00;;;;;;6284117;28;20237;-54
2022/09/26 16:07:02;;;;;;;2.73;2.63;;;15.90;1.00;;;;;;6281525;28;20666;-54
2022/09/26 16:10:19;;;;;;;2.63;2.43;;;15.80;1.00;;;;;;6286706;28;20362;-53
2022/09/26 16:13:25;;;;;;;3.13;2.93;;;15.80;1.00;;;;;;6280987;28;20222;-54
2022/09/26 16:16:32;;;;;;;3.93;3.37;;;15.70;1.00;;;;;;6282342;28;20240;-55
2022/09/26 16:19:42;;;;;;;3.37;2.93;;;15.60;1.00;;;;;;6279316;28;20233;-53
2022/09/26 16:22:49;;;;;;;3.10;2.83;;;15.60;1.00;;;;;;6273600;28;20234;-54
2022/09/26 16:25:55;;;;;;;2.67;2.50;;;15.50;1.00;;;;;;6281953;28;20233;-54
2022/09/26 16:28:59;;;;;;;3.40;3.20;;;15.40;1.00;;;;;;6289048;28;20241;-54
2022/09/26 16:32:04;;;;;;;3.47;3.37;;;15.40;1.00;;;;;;6288099;28;20229;-54
2022/09/26 16:35:18;;;;;;;3.93;2.90;;;15.30;1.00;;;;;;6280091;28;20236;-54
2022/09/26 16:38:26;;;;;;;3.10;2.93;;;15.30;1.00;;;;;;6277238;28;20243;-55
2022/09/26 16:41:35;;;;;;;3.73;3.40;;;15.10;1.00;;;;;;6281275;28;20277;-55
2022/09/26 16:45:02;;;;;;;3.00;2.73;;;15.20;1.00;;;;;;6282788;28;20595;-54
2022/09/26 16:48:34;;;;;;;3.70;3.50;;;15.10;1.00;;;;;;6281363;28;20233;-54